createdAt,value
2023-01-12T00:02:23.363Z,11.50
2023-01-12T00:04:51.362Z,11.63
2023-01-12T00:07:20.637Z,10.48
2023-01-12T00:09:48.696Z,11.52
2023-01-12T00:12:16.818Z,9.30
2023-01-12T00:14:44.790Z,10.00
2023-01-12T00:17:16.614Z,10.25
2023-01-12T00:19:44.678Z,10.25
2023-01-12T00:22:12.800Z,10.38
2023-01-12T00:24:46.246Z,9.68
2023-01-12T00:29:43.932Z,9.23
2023-01-12T00:32:17.405Z,9.70
2023-01-12T00:34:45.919Z,11.82
2023-01-12T00:37:14.467Z,11.63
2023-01-12T00:39:53.272Z,10.90
2023-01-12T00:42:43.697Z,10.35
2023-01-12T00:45:24.705Z,9.82
2023-01-12T00:47:53.918Z,10.63
2023-01-12T00:50:22.289Z,13.15
2023-01-12T00:52:50.808Z,13.13
2023-01-12T00:55:18.810Z,12.80
2023-01-12T00:57:46.784Z,13.43
2023-01-12T01:00:15.752Z,12.32
2023-01-12T01:02:43.972Z,14.40
2023-01-12T01:05:11.994Z,9.63
2023-01-12T01:07:40.119Z,9.95
2023-01-12T01:10:08.707Z,9.75
2023-01-12T01:12:36.952Z,10.65
2023-01-12T01:15:05.856Z,10.65
2023-01-12T01:17:33.896Z,12.10
2023-01-12T01:20:02.067Z,11.75
2023-01-12T01:22:30.935Z,12.27
2023-01-12T01:24:59.398Z,12.15
2023-01-12T01:27:27.332Z,12.02
2023-01-12T01:29:55.246Z,11.57
2023-01-12T01:32:23.339Z,11.18
2023-01-12T01:34:51.404Z,10.73
2023-01-12T01:37:21.817Z,10.25
2023-01-12T01:39:50.003Z,12.18
2023-01-12T01:42:28.250Z,13.00
2023-01-12T01:44:58.677Z,13.90
2023-01-12T01:47:33.430Z,15.02
2023-01-12T01:50:04.680Z,15.13
2023-01-12T01:52:40.889Z,14.23
2023-01-12T01:55:21.867Z,14.77
2023-01-12T01:58:01.127Z,16.83
2023-01-12T02:00:29.568Z,12.80
2023-01-12T02:02:59.679Z,10.90
2023-01-12T02:05:29.033Z,11.88
2023-01-12T02:08:08.429Z,11.35
2023-01-12T02:10:37.833Z,10.52
2023-01-12T02:13:24.574Z,11.85
2023-01-12T02:16:14.244Z,10.60
2023-01-12T02:19:19.008Z,13.30
2023-01-12T02:22:07.392Z,15.50
2023-01-12T02:25:15.853Z,17.85
2023-01-12T02:28:05.173Z,17.60
2023-01-12T02:31:03.792Z,17.77
2023-01-12T02:33:57.980Z,22.48
2023-01-12T02:36:52.710Z,19.77
2023-01-12T02:39:29.707Z,15.13
2023-01-12T02:42:23.803Z,15.10
2023-01-12T02:47:50.358Z,10.45
2023-01-12T02:50:24.071Z,10.27
2023-01-12T02:52:58.570Z,9.23
2023-01-12T02:55:28.193Z,7.80
2023-01-12T02:57:57.593Z,9.75
2023-01-12T03:00:26.567Z,8.18
2023-01-12T03:02:54.637Z,8.27
2023-01-12T03:05:27.572Z,7.50
2023-01-12T03:08:00.382Z,8.15
2023-01-12T03:10:51.037Z,7.63
2023-01-12T03:13:22.539Z,8.75
2023-01-12T03:16:13.268Z,8.82
2023-01-12T03:18:55.460Z,8.60
2023-01-12T03:21:47.056Z,9.48
2023-01-12T03:24:24.363Z,9.93
2023-01-12T03:26:59.252Z,9.93
2023-01-12T03:29:37.971Z,9.60
2023-01-12T03:32:06.707Z,8.68
2023-01-12T03:34:36.378Z,9.27
2023-01-12T03:37:28.136Z,8.75
2023-01-12T03:40:05.185Z,12.15
2023-01-12T03:42:52.082Z,13.30
2023-01-12T03:45:19.970Z,13.38
2023-01-12T03:48:11.161Z,13.27
2023-01-12T03:50:45.322Z,13.98
2023-01-12T03:53:16.044Z,14.98
2023-01-12T03:55:46.956Z,14.50
2023-01-12T03:58:15.828Z,13.98
2023-01-12T04:00:44.883Z,13.05
2023-01-12T04:03:14.827Z,12.90
2023-01-12T04:05:44.289Z,11.77
2023-01-12T04:08:15.347Z,11.18
2023-01-12T04:10:43.661Z,12.38
2023-01-12T04:13:12.046Z,9.57
2023-01-12T04:15:42.670Z,8.95
2023-01-12T04:18:12.216Z,9.77
2023-01-12T04:20:40.855Z,10.18
2023-01-12T04:23:09.050Z,9.30
2023-01-12T04:25:37.270Z,11.43
2023-01-12T04:28:05.842Z,11.23
2023-01-12T04:30:35.007Z,11.73
2023-01-12T04:33:08.371Z,11.25
2023-01-12T04:35:36.582Z,9.93
2023-01-12T04:38:08.964Z,9.57
2023-01-12T04:40:37.015Z,10.15
2023-01-12T04:43:07.986Z,11.15
2023-01-12T04:45:41.731Z,10.88
2023-01-12T04:48:13.056Z,11.02
2023-01-12T04:50:41.825Z,10.20
2023-01-12T04:53:12.019Z,8.32
2023-01-12T04:55:42.637Z,9.82
2023-01-12T04:58:10.680Z,9.63
2023-01-12T05:00:38.621Z,9.05
2023-01-12T05:03:06.782Z,7.85
2023-01-12T05:05:36.196Z,7.63
2023-01-12T05:08:28.164Z,8.18
2023-01-12T05:10:58.055Z,8.00
2023-01-12T05:13:29.974Z,8.50
2023-01-12T05:16:07.174Z,7.32
2023-01-12T05:23:46.100Z,9.10
2023-01-12T05:26:14.860Z,11.40
2023-01-12T05:28:43.034Z,10.45
2023-01-12T05:31:13.523Z,11.20
2023-01-12T05:33:42.609Z,11.15
2023-01-12T05:36:13.858Z,11.55
2023-01-12T05:38:42.648Z,11.82
2023-01-12T05:41:13.507Z,12.85
2023-01-12T05:43:51.281Z,11.02
2023-01-12T05:46:21.903Z,11.85
2023-01-12T05:48:50.900Z,11.60
2023-01-12T05:51:19.958Z,12.52
2023-01-12T05:53:49.049Z,11.70
2023-01-12T05:56:23.509Z,11.80
2023-01-12T05:58:57.312Z,10.60
2023-01-12T06:01:27.195Z,10.45
2023-01-12T06:03:57.812Z,13.10
2023-01-12T06:06:51.603Z,12.10
2023-01-12T06:09:19.537Z,14.32
2023-01-12T06:12:05.902Z,11.77
2023-01-12T06:14:34.096Z,11.77
2023-01-12T06:17:02.219Z,11.23
2023-01-12T06:19:30.438Z,11.50
2023-01-12T06:21:59.774Z,11.32
2023-01-12T06:24:28.593Z,11.57
2023-01-12T06:26:56.639Z,13.13
2023-01-12T06:29:24.658Z,12.93
2023-01-12T06:31:52.836Z,11.90
2023-01-12T06:34:21.094Z,11.40
2023-01-12T06:36:49.536Z,11.63
2023-01-12T06:39:17.584Z,11.55
2023-01-12T06:42:04.455Z,11.77
2023-01-12T06:44:32.498Z,13.27
2023-01-12T06:47:02.646Z,12.98
2023-01-12T06:49:32.349Z,13.60
2023-01-12T06:52:00.292Z,10.98
2023-01-12T06:54:28.286Z,11.43
2023-01-12T06:56:56.514Z,11.88
2023-01-12T06:59:49.677Z,10.18
2023-01-12T07:02:17.709Z,10.27
2023-01-12T07:04:45.699Z,11.15
2023-01-12T07:07:13.921Z,10.80
2023-01-12T07:09:41.908Z,11.23
2023-01-12T07:12:09.808Z,12.20
2023-01-12T07:14:37.729Z,14.95
2023-01-12T07:17:05.745Z,24.05
2023-01-12T07:19:33.771Z,22.38
2023-01-12T07:22:02.102Z,22.45
2023-01-12T07:24:30.192Z,21.02
2023-01-12T07:26:58.787Z,16.88
2023-01-12T07:29:26.783Z,19.13
2023-01-12T07:31:54.763Z,19.20
2023-01-12T07:34:22.923Z,18.40
2023-01-12T07:36:51.885Z,19.70
2023-01-12T07:39:20.148Z,20.67
2023-01-12T07:42:06.729Z,19.33
2023-01-12T07:44:36.831Z,18.67
2023-01-12T07:47:04.894Z,19.70
2023-01-12T07:49:33.094Z,19.75
2023-01-12T07:52:01.145Z,24.75
2023-01-12T07:54:29.382Z,25.63
2023-01-12T07:56:58.069Z,20.02
2023-01-12T07:59:27.658Z,18.85
2023-01-12T08:01:55.754Z,16.73
2023-01-12T08:04:23.695Z,17.20
2023-01-12T08:06:52.027Z,16.73
2023-01-12T08:09:19.940Z,18.33
2023-01-12T08:11:47.928Z,16.83
2023-01-12T08:14:33.334Z,15.32
2023-01-12T08:17:02.638Z,16.75
2023-01-12T08:19:41.816Z,17.35
2023-01-12T08:22:16.415Z,17.40
2023-01-12T08:24:50.929Z,20.35
2023-01-12T08:27:23.214Z,21.33
2023-01-12T08:29:55.531Z,18.38
2023-01-12T08:32:24.031Z,19.25
2023-01-12T08:34:53.779Z,24.02
2023-01-12T08:37:24.310Z,25.52
2023-01-12T08:39:52.892Z,25.52
2023-01-12T08:42:25.188Z,25.23
2023-01-12T08:44:55.136Z,23.73
2023-01-12T08:47:28.870Z,21.88
2023-01-12T08:49:59.412Z,17.83
2023-01-12T08:52:32.657Z,18.67
2023-01-12T08:55:00.645Z,17.08
2023-01-12T08:57:28.800Z,18.23
2023-01-12T08:59:57.770Z,15.13
2023-01-12T09:02:27.212Z,15.77
2023-01-12T09:04:55.599Z,17.33
2023-01-12T09:07:23.862Z,15.88
2023-01-12T09:09:51.791Z,15.43
2023-01-12T09:12:19.800Z,16.58
2023-01-12T09:14:47.776Z,15.65
2023-01-12T09:17:15.759Z,16.98
2023-01-12T09:19:44.751Z,17.30
2023-01-12T09:22:12.916Z,17.05
2023-01-12T09:24:41.974Z,16.63
2023-01-12T09:27:11.107Z,15.43
2023-01-12T09:29:39.244Z,15.13
2023-01-12T09:32:07.463Z,15.48
2023-01-12T09:34:35.507Z,15.68
2023-01-12T09:37:03.672Z,16.10
2023-01-12T09:39:31.721Z,16.42
2023-01-12T09:42:18.187Z,15.40
2023-01-12T09:45:11.187Z,15.25
2023-01-12T09:48:01.439Z,18.02
2023-01-12T09:50:37.156Z,18.80
2023-01-12T09:53:16.161Z,17.38
2023-01-12T09:55:44.174Z,16.10
2023-01-12T09:58:23.424Z,16.27
2023-01-12T10:00:54.362Z,9.02
2023-01-12T10:03:35.921Z,8.27
2023-01-12T10:06:14.398Z,9.43
2023-01-12T10:08:55.521Z,9.65
2023-01-12T10:11:45.361Z,9.65
2023-01-12T10:14:34.450Z,10.70
2023-01-12T10:17:25.608Z,11.60
2023-01-12T10:20:08.721Z,10.85
2023-01-12T10:22:52.400Z,10.20
2023-01-12T10:25:41.189Z,16.35
2023-01-12T10:28:25.576Z,16.33
2023-01-12T10:30:56.396Z,16.23
2023-01-12T10:33:30.267Z,11.50
2023-01-12T10:36:03.418Z,12.93
2023-01-12T10:38:36.218Z,13.25
2023-01-12T10:41:21.703Z,10.80
2023-01-12T10:43:55.564Z,12.00
2023-01-12T10:46:27.047Z,11.23
2023-01-12T10:49:15.199Z,15.05
2023-01-12T10:51:57.210Z,10.85
2023-01-12T10:54:35.716Z,9.93
2023-01-12T10:57:22.577Z,9.07
2023-01-12T11:00:03.253Z,9.32
2023-01-12T11:02:43.572Z,10.05
2023-01-12T11:05:34.257Z,10.70
2023-01-12T11:08:02.595Z,11.25
2023-01-12T11:10:33.419Z,10.95
2023-01-12T11:13:04.901Z,11.57
2023-01-12T11:15:39.172Z,11.05
2023-01-12T11:18:23.521Z,11.23
2023-01-12T11:20:57.984Z,13.43
2023-01-12T11:24:07.607Z,12.35
2023-01-12T11:27:00.928Z,13.30
2023-01-12T11:29:38.971Z,14.75
2023-01-12T11:32:18.424Z,12.23
2023-01-12T11:34:57.434Z,12.80
2023-01-12T11:37:25.819Z,13.35
2023-01-12T11:40:04.836Z,12.82
2023-01-12T11:42:55.973Z,11.90
2023-01-12T11:45:34.727Z,11.50
2023-01-12T11:48:14.950Z,11.93
2023-01-12T11:50:45.384Z,12.23
2023-01-12T11:53:24.703Z,14.20
2023-01-12T11:56:07.464Z,13.27
2023-01-12T11:58:43.977Z,12.05
2023-01-12T12:01:40.348Z,25.08
2023-01-12T12:04:20.187Z,17.60
2023-01-12T12:07:03.461Z,16.42
2023-01-12T12:09:54.060Z,13.60
2023-01-12T12:12:35.420Z,15.75
2023-01-12T12:15:30.574Z,20.17
2023-01-12T12:19:03.397Z,22.25
2023-01-12T12:21:41.011Z,9.80
2023-01-12T12:24:18.505Z,11.40
2023-01-12T12:27:11.460Z,13.18
2023-01-12T12:30:01.272Z,11.43
2023-01-12T12:32:55.275Z,7.78
2023-01-12T12:35:59.276Z,11.07
2023-01-12T12:39:11.668Z,11.48
2023-01-12T12:42:06.253Z,12.98
2023-01-12T12:45:06.892Z,12.40
2023-01-12T12:47:50.091Z,11.45
2023-01-12T12:50:25.358Z,11.90
2023-01-12T12:53:14.882Z,13.00
2023-01-12T12:55:43.611Z,14.25
2023-01-12T12:58:23.399Z,13.15
2023-01-12T13:00:53.245Z,9.85
2023-01-12T13:03:40.152Z,11.23
2023-01-12T13:06:17.370Z,11.07
2023-01-12T13:08:46.891Z,9.73
2023-01-12T13:11:15.345Z,9.85
2023-01-12T13:14:03.670Z,9.15
2023-01-12T13:16:31.822Z,10.23
2023-01-12T13:19:00.482Z,10.27
2023-01-12T13:21:31.874Z,11.80
2023-01-12T13:24:14.913Z,9.85
2023-01-12T13:26:45.298Z,11.30
2023-01-12T13:29:29.193Z,10.45
2023-01-12T13:32:19.102Z,10.15
2023-01-12T13:34:49.098Z,10.27
2023-01-12T13:37:37.170Z,8.30
2023-01-12T13:40:19.873Z,8.10
2023-01-12T13:43:08.376Z,9.32
2023-01-12T13:45:37.547Z,8.57
2023-01-12T13:48:07.627Z,8.05
2023-01-12T13:50:37.353Z,9.52
2023-01-12T13:53:19.727Z,9.02
2023-01-12T13:56:03.437Z,9.27
2023-01-12T13:58:43.149Z,10.43
2023-01-12T14:01:26.381Z,9.35
2023-01-12T14:04:09.035Z,9.02
2023-01-12T14:07:03.359Z,10.38
2023-01-12T14:09:46.355Z,15.98
2023-01-12T14:12:39.112Z,11.82
2023-01-12T14:15:57.680Z,15.90
2023-01-12T14:18:28.712Z,11.00
2023-01-12T14:20:59.360Z,9.52
2023-01-12T14:23:27.341Z,8.32
2023-01-12T14:26:14.858Z,9.95
2023-01-12T14:28:45.808Z,12.20
2023-01-12T14:31:39.923Z,9.23
2023-01-12T14:34:26.641Z,8.88
2023-01-12T14:36:55.896Z,11.35
2023-01-12T14:39:49.562Z,10.23
2023-01-12T14:42:38.698Z,8.60
2023-01-12T14:45:46.765Z,9.05
2023-01-12T14:48:27.967Z,9.20
2023-01-12T14:51:38.581Z,9.15
2023-01-12T14:54:06.704Z,11.32
2023-01-12T14:56:56.871Z,12.90
2023-01-12T14:59:29.356Z,15.40
2023-01-12T15:02:15.613Z,12.00
2023-01-12T15:05:04.173Z,11.85
2023-01-12T15:07:37.126Z,24.02
2023-01-12T15:10:15.378Z,26.67
2023-01-12T15:12:49.215Z,26.67
2023-01-12T15:15:23.968Z,16.05
2023-01-12T15:18:12.943Z,12.45
2023-01-12T15:21:02.755Z,20.17
2023-01-12T15:23:52.431Z,15.00
2023-01-12T15:26:21.988Z,25.75
2023-01-12T15:28:50.831Z,36.08
2023-01-12T15:31:36.090Z,33.22
2023-01-12T15:34:05.595Z,22.45
2023-01-12T15:36:33.604Z,30.88
2023-01-12T15:39:02.296Z,25.30
2023-01-12T15:41:50.701Z,19.23
2023-01-12T15:44:20.927Z,15.60
2023-01-12T15:46:49.085Z,18.52
2023-01-12T15:49:17.557Z,19.05
2023-01-12T15:51:51.081Z,23.55
2023-01-12T15:54:21.968Z,19.58
2023-01-12T15:56:50.096Z,15.38
2023-01-12T15:59:18.326Z,19.90
2023-01-12T16:01:50.348Z,21.20
2023-01-12T16:04:42.163Z,63.95
2023-01-12T16:07:10.669Z,32.67
2023-01-12T16:09:41.196Z,40.30
2023-01-12T16:12:10.216Z,35.75
2023-01-12T16:14:38.836Z,40.08
2023-01-12T16:17:07.378Z,39.22
2023-01-12T16:19:41.463Z,28.13
2023-01-12T16:22:18.016Z,25.13
2023-01-12T16:24:46.151Z,25.48
2023-01-12T16:27:15.304Z,21.13
2023-01-12T16:29:45.964Z,25.83
2023-01-12T16:32:14.039Z,24.15
2023-01-12T16:34:42.132Z,26.33
2023-01-12T16:37:15.301Z,24.95
2023-01-12T16:39:44.561Z,28.65
2023-01-12T16:42:13.010Z,26.83
2023-01-12T16:44:41.925Z,31.58
2023-01-12T16:47:14.844Z,32.03
2023-01-12T16:49:44.052Z,22.33
2023-01-12T16:52:16.446Z,22.02
2023-01-12T16:54:44.645Z,34.03
2023-01-12T16:57:16.178Z,30.67
2023-01-12T16:59:45.317Z,24.42
2023-01-12T17:02:17.772Z,29.98
2023-01-12T17:04:48.596Z,22.58
2023-01-12T17:07:17.275Z,17.52
2023-01-12T17:09:46.401Z,20.63
2023-01-12T17:12:14.560Z,20.10
2023-01-12T17:14:43.131Z,18.77
2023-01-12T17:17:12.605Z,23.00
2023-01-12T17:19:45.135Z,24.65
2023-01-12T17:22:13.641Z,25.13
2023-01-12T17:24:42.019Z,35.83
2023-01-12T17:27:10.990Z,55.58
2023-01-12T17:29:39.531Z,50.45
2023-01-12T17:32:08.829Z,47.08
2023-01-12T17:34:39.817Z,55.53
2023-01-12T17:37:08.656Z,58.35
2023-01-12T17:39:40.036Z,52.30
2023-01-12T17:42:29.042Z,73.07
2023-01-12T17:44:57.078Z,62.45
2023-01-12T17:47:25.723Z,77.13
2023-01-12T17:49:54.753Z,93.97
2023-01-12T17:52:23.259Z,90.68
2023-01-12T17:54:51.526Z,85.13
2023-01-12T17:57:19.521Z,78.72
2023-01-12T17:59:47.578Z,57.65
2023-01-12T18:02:16.892Z,51.40
2023-01-12T18:04:45.948Z,52.70
2023-01-12T18:07:13.952Z,36.80
2023-01-12T18:09:42.293Z,36.03
2023-01-12T18:12:10.781Z,38.40
2023-01-12T18:14:38.891Z,30.92
2023-01-12T18:17:07.910Z,19.77
2023-01-12T18:19:35.878Z,24.02
2023-01-12T18:22:07.191Z,22.67
2023-01-12T18:24:35.924Z,23.35
2023-01-12T18:27:04.633Z,34.08
2023-01-12T18:29:33.333Z,39.80
2023-01-12T18:32:01.392Z,40.25
2023-01-12T18:34:29.690Z,52.17
2023-01-12T18:36:58.258Z,50.65
2023-01-12T18:39:26.380Z,42.33
2023-01-12T18:42:14.190Z,41.47
2023-01-12T18:44:42.564Z,41.65
2023-01-12T18:47:33.967Z,47.40
2023-01-12T18:50:20.567Z,39.33
2023-01-12T18:53:07.904Z,53.83
2023-01-12T18:55:37.514Z,58.47
2023-01-12T18:58:06.040Z,55.72
2023-01-12T19:00:34.184Z,62.30
2023-01-12T19:03:03.742Z,60.80
2023-01-12T19:05:47.489Z,66.15
2023-01-12T19:08:28.355Z,80.50
2023-01-12T19:11:08.501Z,129.85
2023-01-12T19:13:56.500Z,121.97
2023-01-12T19:16:43.592Z,123.90
2023-01-12T19:19:12.228Z,156.57
2023-01-12T19:21:59.161Z,92.90
2023-01-12T19:24:45.800Z,95.80
2023-01-12T19:27:33.429Z,53.30
2023-01-12T19:30:01.680Z,47.15
2023-01-12T19:32:33.267Z,35.45
2023-01-12T19:35:10.614Z,32.70
2023-01-12T19:37:42.590Z,34.78
2023-01-12T19:40:18.714Z,61.83
2023-01-12T19:43:07.324Z,67.88
2023-01-12T19:45:39.637Z,81.93
2023-01-12T19:48:09.698Z,102.85
2023-01-12T19:50:38.927Z,120.78
2023-01-12T19:53:09.753Z,134.55
2023-01-12T19:55:40.309Z,98.13
2023-01-12T19:58:09.450Z,72.65
2023-01-12T20:00:45.284Z,52.38
2023-01-12T20:03:15.729Z,34.80
2023-01-12T20:05:44.663Z,46.55
2023-01-12T20:08:12.607Z,41.08
2023-01-12T20:10:41.465Z,40.80
2023-01-12T20:13:12.903Z,47.65
2023-01-12T20:15:43.809Z,57.78
2023-01-12T20:18:13.870Z,59.00
2023-01-12T20:20:43.366Z,80.82
2023-01-12T20:23:13.392Z,72.30
2023-01-12T20:25:42.825Z,83.00
2023-01-12T20:28:13.707Z,88.15
2023-01-12T20:30:43.184Z,91.65
2023-01-12T20:33:12.704Z,85.65
2023-01-12T20:35:45.500Z,86.88
2023-01-12T20:38:40.849Z,75.65
2023-01-12T20:41:10.713Z,60.40
2023-01-12T20:43:39.094Z,61.47
2023-01-12T20:46:08.611Z,55.83
2023-01-12T20:48:37.415Z,49.45
2023-01-12T20:51:09.810Z,40.55
2023-01-12T20:53:39.018Z,59.37
2023-01-12T20:56:08.572Z,70.18
2023-01-12T20:58:37.157Z,63.58
2023-01-12T21:01:13.033Z,65.45
2023-01-12T21:03:43.234Z,48.85
2023-01-12T21:06:13.825Z,40.63
2023-01-12T21:08:44.892Z,36.60
2023-01-12T21:11:15.404Z,38.72
2023-01-12T21:13:45.185Z,51.42
2023-01-12T21:16:17.870Z,49.28
2023-01-12T21:18:46.769Z,53.17
2023-01-12T21:21:15.335Z,59.03
2023-01-12T21:23:43.307Z,54.42
2023-01-12T21:26:12.528Z,60.85
2023-01-12T21:28:41.043Z,62.22
2023-01-12T21:31:12.950Z,54.55
2023-01-12T21:33:41.721Z,49.72
2023-01-12T21:36:12.705Z,47.28
2023-01-12T21:38:41.182Z,33.63
2023-01-12T21:41:11.538Z,36.30
2023-01-12T21:43:39.485Z,27.55
2023-01-12T21:46:10.516Z,19.67
2023-01-12T21:48:39.018Z,20.75
2023-01-12T21:51:13.569Z,18.35
2023-01-12T21:53:42.748Z,18.98
2023-01-12T21:56:13.439Z,21.55
2023-01-12T21:58:42.130Z,19.50
2023-01-12T22:01:12.557Z,16.70
2023-01-12T22:03:41.119Z,23.48
2023-01-12T22:06:11.569Z,41.08
2023-01-12T22:08:42.007Z,28.27
2023-01-12T22:11:13.402Z,24.67
2023-01-12T22:13:43.751Z,28.20
2023-01-12T22:16:15.227Z,16.35
2023-01-12T22:18:51.418Z,21.35
2023-01-12T22:21:21.046Z,13.93
2023-01-12T22:23:49.650Z,15.18
2023-01-12T22:26:19.533Z,14.82
2023-01-12T22:28:48.919Z,16.50
2023-01-12T22:31:22.760Z,15.75
2023-01-12T22:33:54.255Z,16.60
2023-01-12T22:36:22.705Z,16.13
2023-01-12T22:38:51.353Z,15.10
2023-01-12T22:41:22.140Z,16.60
2023-01-12T22:43:50.594Z,15.80
2023-01-12T22:46:23.670Z,15.80
2023-01-12T22:48:57.363Z,16.52
2023-01-12T22:51:27.251Z,17.00
2023-01-12T22:53:56.651Z,18.52
2023-01-12T22:56:25.183Z,20.50
2023-01-12T22:58:55.418Z,18.38
2023-01-12T23:01:28.625Z,19.58
2023-01-12T23:03:58.550Z,18.60
2023-01-12T23:06:27.847Z,19.45
2023-01-12T23:08:55.905Z,19.58
2023-01-12T23:11:26.561Z,19.98
2023-01-12T23:13:54.996Z,20.38
2023-01-12T23:16:23.446Z,20.42
2023-01-12T23:18:51.767Z,22.08
2023-01-12T23:21:21.550Z,21.60
2023-01-12T23:23:53.696Z,21.73
2023-01-12T23:26:27.232Z,22.55
2023-01-12T23:29:00.440Z,14.93
2023-01-12T23:31:30.682Z,16.88
2023-01-12T23:33:58.714Z,17.17
2023-01-12T23:36:28.713Z,15.35
2023-01-12T23:39:02.810Z,12.55
2023-01-12T23:41:33.705Z,13.25
2023-01-12T23:44:05.736Z,14.10
2023-01-12T23:46:36.614Z,22.65
2023-01-12T23:49:05.361Z,13.00
2023-01-12T23:51:33.926Z,12.55
2023-01-12T23:54:02.813Z,13.02
2023-01-12T23:56:32.843Z,14.80
2023-01-12T23:59:00.838Z,14.40
